sensor_id;sensor_type;location;lat;lon;timestamp;pressure;altitude;pressure_sealevel;temperature;humidity
45763;BME280;37512;52.408;13.356;2023-03-13T00:02:38;100212.09;;;5.38;100.00
45763;BME280;37512;52.408;13.356;2023-03-13T00:06:40;100219.94;;;5.48;100.00
45763;BME280;37512;52.408;13.356;2023-03-13T00:10:42;100218.53;;;5.42;100.00
45763;BME280;37512;52.408;13.356;2023-03-13T00:14:44;100219.94;;;5.48;100.00
45763;BME280;37512;52.408;13.356;2023-03-13T00:18:47;100226.56;;;5.47;100.00
45763;BME280;37512;52.408;13.356;2023-03-13T00:22:49;100205.38;;;5.48;100.00
45763;BME280;37512;52.408;13.356;2023-03-13T00:26:50;100207.06;;;5.40;100.00
45763;BME280;37512;52.408;13.356;2023-03-13T00:31:20;100205.34;;;5.35;100.00
45763;BME280;37512;52.408;13.356;2023-03-13T00:35:20;100197.31;;;5.42;100.00
45763;BME280;37512;52.408;13.356;2023-03-13T00:39:22;100196.66;;;5.45;100.00
45763;BME280;37512;52.408;13.356;2023-03-13T00:43:23;100202.84;;;5.55;100.00
45763;BME280;37512;52.408;13.356;2023-03-13T00:47:25;100197.44;;;5.46;100.00
45763;BME280;37512;52.408;13.356;2023-03-13T00:51:27;100192.50;;;5.52;100.00
45763;BME280;37512;52.408;13.356;2023-03-13T00:55:29;100191.00;;;5.42;100.00
45763;BME280;37512;52.408;13.356;2023-03-13T00:59:30;100176.69;;;5.49;100.00
45763;BME280;37512;52.408;13.356;2023-03-13T01:03:32;100168.91;;;5.38;100.00
45763;BME280;37512;52.408;13.356;2023-03-13T01:07:33;100163.03;;;5.52;100.00
45763;BME280;37512;52.408;13.356;2023-03-13T01:11:37;100164.78;;;5.57;100.00
45763;BME280;37512;52.408;13.356;2023-03-13T01:15:39;100154.88;;;5.56;100.00
45763;BME280;37512;52.408;13.356;2023-03-13T01:19:40;100154.44;;;5.54;100.00
45763;BME280;37512;52.408;13.356;2023-03-13T01:23:42;100162.22;;;5.39;100.00
45763;BME280;37512;52.408;13.356;2023-03-13T01:27:43;100161.66;;;5.46;100.00
45763;BME280;37512;52.408;13.356;2023-03-13T01:31:45;100157.28;;;5.45;100.00
45763;BME280;37512;52.408;13.356;2023-03-13T01:35:46;100154.34;;;5.50;100.00
45763;BME280;37512;52.408;13.356;2023-03-13T01:39:48;100147.22;;;5.37;100.00
45763;BME280;37512;52.408;13.356;2023-03-13T01:43:50;100148.81;;;5.50;100.00
45763;BME280;37512;52.408;13.356;2023-03-13T01:47:51;100147.91;;;5.46;100.00
45763;BME280;37512;52.408;13.356;2023-03-13T01:52:03;100143.53;;;5.33;100.00
45763;BME280;37512;52.408;13.356;2023-03-13T01:56:11;100138.47;;;5.47;100.00
45763;BME280;37512;52.408;13.356;2023-03-13T02:00:17;100119.22;;;5.47;100.00
45763;BME280;37512;52.408;13.356;2023-03-13T02:04:21;100119.22;;;5.35;100.00
45763;BME280;37512;52.408;13.356;2023-03-13T02:08:30;100112.34;;;5.29;100.00
45763;BME280;37512;52.408;13.356;2023-03-13T02:12:34;100107.75;;;5.45;100.00
45763;BME280;37512;52.408;13.356;2023-03-13T02:16:36;100103.66;;;5.39;100.00
45763;BME280;37512;52.408;13.356;2023-03-13T02:20:39;100097.22;;;5.35;100.00
45763;BME280;37512;52.408;13.356;2023-03-13T02:24:57;100090.13;;;5.34;100.00
45763;BME280;37512;52.408;13.356;2023-03-13T02:29:02;100086.22;;;5.35;100.00
45763;BME280;37512;52.408;13.356;2023-03-13T02:33:03;100088.84;;;5.43;100.00
45763;BME280;37512;52.408;13.356;2023-03-13T02:37:06;100080.69;;;5.47;100.00
45763;BME280;37512;52.408;13.356;2023-03-13T02:41:12;100077.34;;;5.54;100.00
45763;BME280;37512;52.408;13.356;2023-03-13T02:45:15;100066.25;;;5.50;100.00
45763;BME280;37512;52.408;13.356;2023-03-13T02:53:22;100053.16;;;5.59;100.00
45763;BME280;37512;52.408;13.356;2023-03-13T02:57:23;100047.66;;;5.59;100.00
45763;BME280;37512;52.408;13.356;2023-03-13T03:01:25;100030.88;;;5.64;100.00
45763;BME280;37512;52.408;13.356;2023-03-13T03:05:26;100028.34;;;5.72;100.00
45763;BME280;37512;52.408;13.356;2023-03-13T03:09:27;100025.31;;;5.77;100.00
45763;BME280;37512;52.408;13.356;2023-03-13T03:13:29;100013.66;;;5.68;100.00
45763;BME280;37512;52.408;13.356;2023-03-13T03:17:30;100014.38;;;5.64;100.00
45763;BME280;37512;52.408;13.356;2023-03-13T03:21:33;100006.56;;;5.66;100.00
45763;BME280;37512;52.408;13.356;2023-03-13T03:25:34;100012.53;;;5.69;100.00
45763;BME280;37512;52.408;13.356;2023-03-13T03:29:36;99993.69;;;5.71;100.00
45763;BME280;37512;52.408;13.356;2023-03-13T03:33:38;99999.41;;;5.78;100.00
45763;BME280;37512;52.408;13.356;2023-03-13T03:37:40;99992.53;;;5.72;100.00
45763;BME280;37512;52.408;13.356;2023-03-13T03:41:41;99997.00;;;5.76;100.00
45763;BME280;37512;52.408;13.356;2023-03-13T03:45:43;99989.53;;;5.77;100.00
45763;BME280;37512;52.408;13.356;2023-03-13T03:49:44;99977.31;;;5.90;100.00
45763;BME280;37512;52.408;13.356;2023-03-13T03:53:46;99976.94;;;5.76;100.00
45763;BME280;37512;52.408;13.356;2023-03-13T03:57:47;99954.81;;;5.88;100.00
45763;BME280;37512;52.408;13.356;2023-03-13T04:01:49;99954.50;;;5.90;100.00
45763;BME280;37512;52.408;13.356;2023-03-13T04:05:50;99945.84;;;6.03;100.00
45763;BME280;37512;52.408;13.356;2023-03-13T04:09:52;99942.63;;;6.01;100.00
45763;BME280;37512;52.408;13.356;2023-03-13T04:13:53;99930.47;;;6.02;100.00
45763;BME280;37512;52.408;13.356;2023-03-13T04:17:55;99928.97;;;6.05;100.00
45763;BME280;37512;52.408;13.356;2023-03-13T04:21:56;99918.91;;;6.13;100.00
45763;BME280;37512;52.408;13.356;2023-03-13T04:25:58;99915.44;;;6.16;100.00
45763;BME280;37512;52.408;13.356;2023-03-13T04:29:59;99902.31;;;6.25;100.00
45763;BME280;37512;52.408;13.356;2023-03-13T04:34:01;99904.41;;;6.16;100.00
45763;BME280;37512;52.408;13.356;2023-03-13T04:38:03;99896.81;;;6.25;100.00
45763;BME280;37512;52.408;13.356;2023-03-13T04:42:04;99886.81;;;6.36;100.00
45763;BME280;37512;52.408;13.356;2023-03-13T04:46:06;99883.66;;;6.34;100.00
45763;BME280;37512;52.408;13.356;2023-03-13T04:50:08;99879.09;;;6.26;100.00
45763;BME280;37512;52.408;13.356;2023-03-13T04:54:10;99875.63;;;6.29;100.00
45763;BME280;37512;52.408;13.356;2023-03-13T04:58:11;99869.75;;;6.31;100.00
45763;BME280;37512;52.408;13.356;2023-03-13T05:02:13;99861.50;;;6.31;100.00
45763;BME280;37512;52.408;13.356;2023-03-13T05:06:14;99855.09;;;6.26;100.00
45763;BME280;37512;52.408;13.356;2023-03-13T05:10:16;99842.03;;;6.23;100.00
45763;BME280;37512;52.408;13.356;2023-03-13T05:14:18;99834.56;;;6.24;100.00
45763;BME280;37512;52.408;13.356;2023-03-13T05:18:19;99816.25;;;6.16;100.00
45763;BME280;37512;52.408;13.356;2023-03-13T05:22:21;99812.72;;;6.15;100.00
45763;BME280;37512;52.408;13.356;2023-03-13T05:26:22;99821.34;;;6.14;100.00
45763;BME280;37512;52.408;13.356;2023-03-13T05:30:24;99811.03;;;6.11;100.00
45763;BME280;37512;52.408;13.356;2023-03-13T05:34:25;99816.91;;;6.09;100.00
45763;BME280;37512;52.408;13.356;2023-03-13T05:38:27;99804.72;;;6.10;100.00
45763;BME280;37512;52.408;13.356;2023-03-13T05:42:28;99786.94;;;6.07;100.00
45763;BME280;37512;52.408;13.356;2023-03-13T05:46:30;99772.38;;;6.07;100.00
45763;BME280;37512;52.408;13.356;2023-03-13T05:50:32;99777.66;;;6.32;100.00
45763;BME280;37512;52.408;13.356;2023-03-13T05:54:34;99759.50;;;6.85;100.00
45763;BME280;37512;52.408;13.356;2023-03-13T05:58:35;99752.91;;;6.70;100.00
45763;BME280;37512;52.408;13.356;2023-03-13T06:02:37;99743.16;;;6.38;100.00
45763;BME280;37512;52.408;13.356;2023-03-13T06:06:38;99748.00;;;6.25;100.00
45763;BME280;37512;52.408;13.356;2023-03-13T06:10:40;99742.03;;;6.23;100.00
45763;BME280;37512;52.408;13.356;2023-03-13T06:14:41;99734.22;;;6.25;100.00
45763;BME280;37512;52.408;13.356;2023-03-13T06:18:43;99729.31;;;6.34;100.00
45763;BME280;37512;52.408;13.356;2023-03-13T06:22:44;99721.88;;;6.38;100.00
45763;BME280;37512;52.408;13.356;2023-03-13T06:26:50;99707.53;;;6.29;100.00
45763;BME280;37512;52.408;13.356;2023-03-13T06:30:51;99701.75;;;6.34;100.00
45763;BME280;37512;52.408;13.356;2023-03-13T06:34:53;99701.00;;;6.37;100.00
45763;BME280;37512;52.408;13.356;2023-03-13T06:38:54;99679.84;;;6.41;100.00
45763;BME280;37512;52.408;13.356;2023-03-13T06:42:56;99673.91;;;6.39;100.00
45763;BME280;37512;52.408;13.356;2023-03-13T06:46:57;99661.78;;;6.44;100.00
45763;BME280;37512;52.408;13.356;2023-03-13T06:50:59;99652.41;;;6.48;100.00
45763;BME280;37512;52.408;13.356;2023-03-13T06:55:00;99641.44;;;6.52;100.00
45763;BME280;37512;52.408;13.356;2023-03-13T06:59:02;99647.47;;;6.58;100.00
45763;BME280;37512;52.408;13.356;2023-03-13T07:03:04;99636.22;;;6.66;100.00
45763;BME280;37512;52.408;13.356;2023-03-13T07:07:05;99640.44;;;6.60;100.00
45763;BME280;37512;52.408;13.356;2023-03-13T07:11:09;99637.97;;;6.55;100.00
45763;BME280;37512;52.408;13.356;2023-03-13T07:15:11;99644.59;;;6.51;100.00
45763;BME280;37512;52.408;13.356;2023-03-13T07:19:12;99619.69;;;6.66;100.00
45763;BME280;37512;52.408;13.356;2023-03-13T07:23:15;99621.44;;;6.55;100.00
45763;BME280;37512;52.408;13.356;2023-03-13T07:27:16;99615.84;;;6.71;100.00
45763;BME280;37512;52.408;13.356;2023-03-13T07:31:21;99620.56;;;6.70;100.00
45763;BME280;37512;52.408;13.356;2023-03-13T07:35:24;99621.63;;;6.66;100.00
45763;BME280;37512;52.408;13.356;2023-03-13T07:39:26;99613.94;;;6.75;100.00
45763;BME280;37512;52.408;13.356;2023-03-13T07:43:28;99605.38;;;6.80;100.00
45763;BME280;37512;52.408;13.356;2023-03-13T07:47:33;99609.13;;;6.91;100.00
45763;BME280;37512;52.408;13.356;2023-03-13T07:51:35;99575.44;;;7.05;100.00
45763;BME280;37512;52.408;13.356;2023-03-13T07:55:50;99578.78;;;7.18;100.00
45763;BME280;37512;52.408;13.356;2023-03-13T07:59:52;99578.06;;;7.21;100.00
45763;BME280;37512;52.408;13.356;2023-03-13T08:03:54;99574.25;;;7.29;100.00
45763;BME280;37512;52.408;13.356;2023-03-13T08:07:56;99566.34;;;7.28;100.00
45763;BME280;37512;52.408;13.356;2023-03-13T08:11:57;99565.53;;;7.27;100.00
45763;BME280;37512;52.408;13.356;2023-03-13T08:16:05;99551.00;;;7.30;100.00
45763;BME280;37512;52.408;13.356;2023-03-13T08:20:08;99555.31;;;7.28;100.00
45763;BME280;37512;52.408;13.356;2023-03-13T08:24:11;99554.19;;;7.32;100.00
45763;BME280;37512;52.408;13.356;2023-03-13T08:28:13;99543.63;;;7.38;100.00
45763;BME280;37512;52.408;13.356;2023-03-13T08:32:14;99550.31;;;7.37;100.00
45763;BME280;37512;52.408;13.356;2023-03-13T08:36:23;99545.75;;;7.48;100.00
45763;BME280;37512;52.408;13.356;2023-03-13T08:40:25;99538.94;;;7.42;100.00
45763;BME280;37512;52.408;13.356;2023-03-13T08:44:29;99520.16;;;7.51;100.00
45763;BME280;37512;52.408;13.356;2023-03-13T08:48:31;99522.66;;;7.64;100.00
45763;BME280;37512;52.408;13.356;2023-03-13T08:52:32;99507.84;;;7.75;100.00
45763;BME280;37512;52.408;13.356;2023-03-13T08:56:34;99506.75;;;7.84;100.00
45763;BME280;37512;52.408;13.356;2023-03-13T09:00:35;99493.03;;;7.91;100.00
45763;BME280;37512;52.408;13.356;2023-03-13T09:04:37;99492.72;;;7.96;100.00
45763;BME280;37512;52.408;13.356;2023-03-13T09:08:39;99485.63;;;7.99;100.00
45763;BME280;37512;52.408;13.356;2023-03-13T09:12:41;99470.78;;;8.14;100.00
45763;BME280;37512;52.408;13.356;2023-03-13T09:16:43;99476.31;;;8.14;100.00
45763;BME280;37512;52.408;13.356;2023-03-13T09:20:46;99481.13;;;8.21;100.00
45763;BME280;37512;52.408;13.356;2023-03-13T09:24:49;99479.25;;;8.32;100.00
45763;BME280;37512;52.408;13.356;2023-03-13T09:28:51;99482.00;;;8.28;100.00
45763;BME280;37512;52.408;13.356;2023-03-13T09:32:53;99480.38;;;8.24;100.00
45763;BME280;37512;52.408;13.356;2023-03-13T09:36:54;99479.97;;;8.25;100.00
45763;BME280;37512;52.408;13.356;2023-03-13T09:41:04;99465.91;;;8.37;100.00
45763;BME280;37512;52.408;13.356;2023-03-13T09:45:28;99476.25;;;8.44;100.00
45763;BME280;37512;52.408;13.356;2023-03-13T09:49:37;99460.19;;;8.61;100.00
45763;BME280;37512;52.408;13.356;2023-03-13T09:53:45;99472.56;;;8.74;100.00
45763;BME280;37512;52.408;13.356;2023-03-13T09:58:05;99439.88;;;8.90;100.00
45763;BME280;37512;52.408;13.356;2023-03-13T10:02:33;99446.19;;;8.91;100.00
45763;BME280;37512;52.408;13.356;2023-03-13T10:06:40;99433.16;;;8.91;100.00
45763;BME280;37512;52.408;13.356;2023-03-13T10:11:04;70141.72;;;-146.77;100.00
45763;BME280;37512;52.408;13.356;2023-03-13T10:19:34;70141.72;;;-146.77;100.00
45763;BME280;37512;52.408;13.356;2023-03-13T10:27:44;70141.72;;;-146.77;100.00
45763;BME280;37512;52.408;13.356;2023-03-13T10:32:02;70141.72;;;-146.77;100.00
45763;BME280;37512;52.408;13.356;2023-03-13T10:36:07;70141.72;;;-146.77;100.00
45763;BME280;37512;52.408;13.356;2023-03-13T10:44:23;99433.16;;;8.91;100.00
45763;BME280;37512;52.408;13.356;2023-03-13T10:48:40;99433.16;;;8.91;100.00
45763;BME280;37512;52.408;13.356;2023-03-13T10:52:45;99433.16;;;8.91;100.00
45763;BME280;37512;52.408;13.356;2023-03-13T10:56:49;99433.16;;;8.91;100.00
45763;BME280;37512;52.408;13.356;2023-03-13T11:00:51;99433.16;;;8.91;100.00
45763;BME280;37512;52.408;13.356;2023-03-13T11:04:53;99371.56;;;10.29;100.00
45763;BME280;37512;52.408;13.356;2023-03-13T11:09:12;99361.66;;;10.45;100.00
45763;BME280;37512;52.408;13.356;2023-03-13T11:13:26;99356.06;;;10.60;100.00
45763;BME280;37512;52.408;13.356;2023-03-13T11:17:40;99358.84;;;10.71;100.00
45763;BME280;37512;52.408;13.356;2023-03-13T11:26:24;99340.13;;;10.96;100.00
45763;BME280;37512;52.408;13.356;2023-03-13T11:30:46;99330.94;;;11.17;100.00
45763;BME280;37512;52.408;13.356;2023-03-13T11:34:53;99333.28;;;11.26;100.00
45763;BME280;37512;52.408;13.356;2023-03-13T12:00:35;99325.13;;;11.67;100.00
45763;BME280;37512;52.408;13.356;2023-03-13T12:04:42;99324.69;;;11.76;100.00
45763;BME280;37512;52.408;13.356;2023-03-13T12:08:51;99311.09;;;11.92;100.00
45763;BME280;37512;52.408;13.356;2023-03-13T12:17:14;99322.66;;;12.40;100.00
45763;BME280;37512;52.408;13.356;2023-03-13T12:21:52;99307.66;;;12.68;100.00
45763;BME280;37512;52.408;13.356;2023-03-13T12:26:09;99303.50;;;12.87;100.00
45763;BME280;37512;52.408;13.356;2023-03-13T12:30:30;99301.28;;;13.39;100.00
45763;BME280;37512;52.408;13.356;2023-03-13T12:38:55;99284.31;;;13.85;100.00
45763;BME280;37512;52.408;13.356;2023-03-13T12:43:16;99281.69;;;13.47;100.00
45763;BME280;37512;52.408;13.356;2023-03-13T13:00:17;70141.72;;;-146.77;100.00
45763;BME280;37512;52.408;13.356;2023-03-13T13:04:23;70141.72;;;-146.77;100.00
45763;BME280;37512;52.408;13.356;2023-03-13T13:08:43;70141.72;;;-146.77;100.00
45763;BME280;37512;52.408;13.356;2023-03-13T13:17:40;70141.72;;;-146.77;100.00
45763;BME280;37512;52.408;13.356;2023-03-13T13:21:45;70141.72;;;-146.77;100.00
45763;BME280;37512;52.408;13.356;2023-03-13T13:25:47;70141.72;;;-146.77;100.00
45763;BME280;37512;52.408;13.356;2023-03-13T13:29:53;70141.72;;;-146.77;100.00
45763;BME280;37512;52.408;13.356;2023-03-13T13:33:55;70141.72;;;-146.77;100.00
45763;BME280;37512;52.408;13.356;2023-03-13T13:46:32;70141.72;;;-146.77;100.00
45763;BME280;37512;52.408;13.356;2023-03-13T13:50:34;70141.72;;;-146.77;100.00
45763;BME280;37512;52.408;13.356;2023-03-13T13:58:44;70141.72;;;-146.77;100.00
45763;BME280;37512;52.408;13.356;2023-03-13T14:02:49;70141.72;;;-146.77;100.00
45763;BME280;37512;52.408;13.356;2023-03-13T14:06:52;70141.72;;;-146.77;100.00
45763;BME280;37512;52.408;13.356;2023-03-13T14:15:11;70141.72;;;-146.77;100.00
45763;BME280;37512;52.408;13.356;2023-03-13T14:23:34;70141.72;;;-146.77;100.00
45763;BME280;37512;52.408;13.356;2023-03-13T14:27:44;70141.72;;;-146.77;100.00
45763;BME280;37512;52.408;13.356;2023-03-13T14:31:54;70141.72;;;-146.77;100.00
45763;BME280;37512;52.408;13.356;2023-03-13T14:35:56;70141.72;;;-146.77;100.00
45763;BME280;37512;52.408;13.356;2023-03-13T14:40:05;70141.72;;;-146.77;100.00
45763;BME280;37512;52.408;13.356;2023-03-13T14:44:27;70141.72;;;-146.77;100.00
45763;BME280;37512;52.408;13.356;2023-03-13T14:48:33;70141.72;;;-146.77;100.00
45763;BME280;37512;52.408;13.356;2023-03-13T14:52:34;70141.72;;;-146.77;100.00
45763;BME280;37512;52.408;13.356;2023-03-13T14:56:39;70141.72;;;-146.77;100.00
45763;BME280;37512;52.408;13.356;2023-03-13T15:00:45;70141.72;;;-146.77;100.00
45763;BME280;37512;52.408;13.356;2023-03-13T15:04:57;70141.72;;;-146.77;100.00
45763;BME280;37512;52.408;13.356;2023-03-13T15:17:22;70141.72;;;-146.77;100.00
45763;BME280;37512;52.408;13.356;2023-03-13T15:21:29;70141.72;;;-146.77;100.00
45763;BME280;37512;52.408;13.356;2023-03-13T15:25:31;70141.72;;;-146.77;100.00
45763;BME280;37512;52.408;13.356;2023-03-13T15:29:32;70141.72;;;-146.77;100.00
45763;BME280;37512;52.408;13.356;2023-03-13T15:33:34;70141.72;;;-146.77;100.00
45763;BME280;37512;52.408;13.356;2023-03-13T15:37:35;70141.72;;;-146.77;100.00
45763;BME280;37512;52.408;13.356;2023-03-13T15:41:37;70141.72;;;-146.77;100.00
45763;BME280;37512;52.408;13.356;2023-03-13T15:45:41;70141.72;;;-146.77;100.00
45763;BME280;37512;52.408;13.356;2023-03-13T15:49:42;70141.72;;;-146.77;100.00
45763;BME280;37512;52.408;13.356;2023-03-13T15:53:44;70141.72;;;-146.77;100.00
45763;BME280;37512;52.408;13.356;2023-03-13T15:57:49;70141.72;;;-146.77;100.00
45763;BME280;37512;52.408;13.356;2023-03-13T16:01:50;70141.72;;;-146.77;100.00
45763;BME280;37512;52.408;13.356;2023-03-13T16:05:53;70141.72;;;-146.77;100.00
45763;BME280;37512;52.408;13.356;2023-03-13T16:09:55;70141.72;;;-146.77;100.00
45763;BME280;37512;52.408;13.356;2023-03-13T16:13:57;70141.72;;;-146.77;100.00
45763;BME280;37512;52.408;13.356;2023-03-13T16:17:58;70141.72;;;-146.77;100.00
45763;BME280;37512;52.408;13.356;2023-03-13T16:22:00;70141.72;;;-146.77;100.00
45763;BME280;37512;52.408;13.356;2023-03-13T16:26:02;70141.72;;;-146.77;100.00
45763;BME280;37512;52.408;13.356;2023-03-13T16:34:13;70141.72;;;-146.77;100.00
45763;BME280;37512;52.408;13.356;2023-03-13T16:38:14;70141.72;;;-146.77;100.00
45763;BME280;37512;52.408;13.356;2023-03-13T16:42:16;70141.72;;;-146.77;100.00
45763;BME280;37512;52.408;13.356;2023-03-13T16:46:26;70141.72;;;-146.77;100.00
45763;BME280;37512;52.408;13.356;2023-03-13T16:50:36;70141.72;;;-146.77;100.00
45763;BME280;37512;52.408;13.356;2023-03-13T16:54:38;70141.72;;;-146.77;100.00
45763;BME280;37512;52.408;13.356;2023-03-13T16:58:40;70141.72;;;-146.77;100.00
45763;BME280;37512;52.408;13.356;2023-03-13T17:02:41;70141.72;;;-146.77;100.00
45763;BME280;37512;52.408;13.356;2023-03-13T17:06:43;70141.72;;;-146.77;100.00
45763;BME280;37512;52.408;13.356;2023-03-13T17:10:45;70141.72;;;-146.77;100.00
45763;BME280;37512;52.408;13.356;2023-03-13T17:14:51;70141.72;;;-146.77;100.00
45763;BME280;37512;52.408;13.356;2023-03-13T17:18:53;70141.72;;;-146.77;100.00
45763;BME280;37512;52.408;13.356;2023-03-13T17:22:55;70141.72;;;-146.77;100.00
45763;BME280;37512;52.408;13.356;2023-03-13T17:26:57;70141.72;;;-146.77;100.00
45763;BME280;37512;52.408;13.356;2023-03-13T17:30:58;70141.72;;;-146.77;100.00
45763;BME280;37512;52.408;13.356;2023-03-13T17:35:00;70141.72;;;-146.77;100.00
45763;BME280;37512;52.408;13.356;2023-03-13T17:39:04;70141.72;;;-146.77;100.00
45763;BME280;37512;52.408;13.356;2023-03-13T17:43:06;70141.72;;;-146.77;100.00
45763;BME280;37512;52.408;13.356;2023-03-13T17:47:15;70141.72;;;-146.77;100.00
45763;BME280;37512;52.408;13.356;2023-03-13T17:51:23;70141.72;;;-146.77;100.00
45763;BME280;37512;52.408;13.356;2023-03-13T17:55:26;70141.72;;;-146.77;100.00
45763;BME280;37512;52.408;13.356;2023-03-13T17:59:27;70141.72;;;-146.77;100.00
45763;BME280;37512;52.408;13.356;2023-03-13T18:03:30;70141.72;;;-146.77;100.00
45763;BME280;37512;52.408;13.356;2023-03-13T18:07:32;70141.72;;;-146.77;100.00
45763;BME280;37512;52.408;13.356;2023-03-13T18:11:35;70141.72;;;-146.77;100.00
45763;BME280;37512;52.408;13.356;2023-03-13T18:15:36;70141.72;;;-146.77;100.00
45763;BME280;37512;52.408;13.356;2023-03-13T18:19:38;70141.72;;;-146.77;100.00
45763;BME280;37512;52.408;13.356;2023-03-13T18:23:40;70141.72;;;-146.77;100.00
45763;BME280;37512;52.408;13.356;2023-03-13T18:27:41;70141.72;;;-146.77;100.00
45763;BME280;37512;52.408;13.356;2023-03-13T18:31:43;70141.72;;;-146.77;100.00
45763;BME280;37512;52.408;13.356;2023-03-13T18:35:45;70141.72;;;-146.77;100.00
45763;BME280;37512;52.408;13.356;2023-03-13T18:39:47;70141.72;;;-146.77;100.00
45763;BME280;37512;52.408;13.356;2023-03-13T18:43:50;70141.72;;;-146.77;100.00
45763;BME280;37512;52.408;13.356;2023-03-13T18:47:52;70141.72;;;-146.77;100.00
45763;BME280;37512;52.408;13.356;2023-03-13T18:51:54;70141.72;;;-146.77;100.00
45763;BME280;37512;52.408;13.356;2023-03-13T18:56:00;70141.72;;;-146.77;100.00
45763;BME280;37512;52.408;13.356;2023-03-13T19:00:21;70141.72;;;-146.77;100.00
45763;BME280;37512;52.408;13.356;2023-03-13T19:04:24;70141.72;;;-146.77;100.00
45763;BME280;37512;52.408;13.356;2023-03-13T19:08:26;70141.72;;;-146.77;100.00
45763;BME280;37512;52.408;13.356;2023-03-13T19:12:28;70141.72;;;-146.77;100.00
45763;BME280;37512;52.408;13.356;2023-03-13T19:16:44;70141.72;;;-146.77;100.00
45763;BME280;37512;52.408;13.356;2023-03-13T19:20:46;70141.72;;;-146.77;100.00
45763;BME280;37512;52.408;13.356;2023-03-13T19:24:47;70141.72;;;-146.77;100.00
45763;BME280;37512;52.408;13.356;2023-03-13T19:28:49;70141.72;;;-146.77;100.00
45763;BME280;37512;52.408;13.356;2023-03-13T19:32:51;70141.72;;;-146.77;100.00
45763;BME280;37512;52.408;13.356;2023-03-13T19:36:52;70141.72;;;-146.77;100.00
45763;BME280;37512;52.408;13.356;2023-03-13T19:40:54;70141.72;;;-146.77;100.00
45763;BME280;37512;52.408;13.356;2023-03-13T19:44:55;70141.72;;;-146.77;100.00
45763;BME280;37512;52.408;13.356;2023-03-13T19:48:58;70141.72;;;-146.77;100.00
45763;BME280;37512;52.408;13.356;2023-03-13T19:53:00;70141.72;;;-146.77;100.00
45763;BME280;37512;52.408;13.356;2023-03-13T19:57:02;70141.72;;;-146.77;100.00
45763;BME280;37512;52.408;13.356;2023-03-13T20:01:04;70141.72;;;-146.77;100.00
45763;BME280;37512;52.408;13.356;2023-03-13T20:05:17;70141.72;;;-146.77;100.00
45763;BME280;37512;52.408;13.356;2023-03-13T20:09:19;70141.72;;;-146.77;100.00
45763;BME280;37512;52.408;13.356;2023-03-13T20:13:21;70141.72;;;-146.77;100.00
45763;BME280;37512;52.408;13.356;2023-03-13T20:17:22;70141.72;;;-146.77;100.00
45763;BME280;37512;52.408;13.356;2023-03-13T20:21:34;70141.72;;;-146.77;100.00
45763;BME280;37512;52.408;13.356;2023-03-13T20:25:36;70141.72;;;-146.77;100.00
45763;BME280;37512;52.408;13.356;2023-03-13T20:29:38;70141.72;;;-146.77;100.00
45763;BME280;37512;52.408;13.356;2023-03-13T20:33:41;70141.72;;;-146.77;100.00
45763;BME280;37512;52.408;13.356;2023-03-13T20:37:43;70141.72;;;-146.77;100.00
45763;BME280;37512;52.408;13.356;2023-03-13T20:41:45;70141.72;;;-146.77;100.00
45763;BME280;37512;52.408;13.356;2023-03-13T20:45:46;70141.72;;;-146.77;100.00
45763;BME280;37512;52.408;13.356;2023-03-13T20:49:48;70141.72;;;-146.77;100.00
45763;BME280;37512;52.408;13.356;2023-03-13T20:53:49;70141.72;;;-146.77;100.00
45763;BME280;37512;52.408;13.356;2023-03-13T20:57:51;70141.72;;;-146.77;100.00
45763;BME280;37512;52.408;13.356;2023-03-13T21:01:52;70141.72;;;-146.77;100.00
45763;BME280;37512;52.408;13.356;2023-03-13T21:05:54;70141.72;;;-146.77;100.00
45763;BME280;37512;52.408;13.356;2023-03-13T21:09:55;70141.72;;;-146.77;100.00
45763;BME280;37512;52.408;13.356;2023-03-13T21:13:57;70141.72;;;-146.77;100.00
45763;BME280;37512;52.408;13.356;2023-03-13T21:17:58;70141.72;;;-146.77;100.00
45763;BME280;37512;52.408;13.356;2023-03-13T21:22:00;70141.72;;;-146.77;100.00
45763;BME280;37512;52.408;13.356;2023-03-13T21:26:01;70141.72;;;-146.77;100.00
45763;BME280;37512;52.408;13.356;2023-03-13T21:30:05;70141.72;;;-146.77;100.00
45763;BME280;37512;52.408;13.356;2023-03-13T21:34:07;70141.72;;;-146.77;100.00
45763;BME280;37512;52.408;13.356;2023-03-13T21:38:10;70141.72;;;-146.77;100.00
45763;BME280;37512;52.408;13.356;2023-03-13T21:42:12;70141.72;;;-146.77;100.00
45763;BME280;37512;52.408;13.356;2023-03-13T21:46:16;70141.72;;;-146.77;100.00
45763;BME280;37512;52.408;13.356;2023-03-13T21:50:18;70141.72;;;-146.77;100.00
45763;BME280;37512;52.408;13.356;2023-03-13T21:54:24;70141.72;;;-146.77;100.00
45763;BME280;37512;52.408;13.356;2023-03-13T21:58:25;70141.72;;;-146.77;100.00
45763;BME280;37512;52.408;13.356;2023-03-13T22:02:27;70141.72;;;-146.77;100.00
45763;BME280;37512;52.408;13.356;2023-03-13T22:06:28;70141.72;;;-146.77;100.00
45763;BME280;37512;52.408;13.356;2023-03-13T22:10:30;70141.72;;;-146.77;100.00
45763;BME280;37512;52.408;13.356;2023-03-13T22:14:32;70141.72;;;-146.77;100.00
45763;BME280;37512;52.408;13.356;2023-03-13T22:18:33;70141.72;;;-146.77;100.00
45763;BME280;37512;52.408;13.356;2023-03-13T22:22:34;70141.72;;;-146.77;100.00
45763;BME280;37512;52.408;13.356;2023-03-13T22:26:37;70141.72;;;-146.77;100.00
45763;BME280;37512;52.408;13.356;2023-03-13T22:30:39;70141.72;;;-146.77;100.00
45763;BME280;37512;52.408;13.356;2023-03-13T22:34:41;70141.72;;;-146.77;100.00